Time;durP1;ratioP1;P1;durP2;ratioP2;P2;SDS_P1;SDS_P2;PMS_P1;PMS_P2;Temp;Humidity;BMP_temperature;BMP_pressure;BME280_temperature;BME280_humidity;BME280_pressure;Samples;Min_cycle;Max_cycle;Signal;HPM_P1;HPM_P2
2022/10/12 00:01:45;;;;;;;;;;;;;;;20.72;48.64;102125.22;5144683;27;20309;-40
2022/10/12 00:04:11;;;;;;;;;;;;;;;20.73;48.64;102126.06;5145537;27;19927;-39
2022/10/12 00:06:36;;;;;;;;;;;;;;;20.73;48.77;102129.69;5148525;27;19927;-39
2022/10/12 00:09:02;;;;;;;;;;;;;;;20.72;48.63;102127.16;5148049;27;19923;-40
2022/10/12 00:11:27;;;;;;;;;;;;;;;20.72;48.80;102127.97;5143108;27;20551;-40
2022/10/12 00:13:53;;;;;;;;;;;;;;;20.73;48.62;102135.22;5148918;27;19927;-40
2022/10/12 00:16:19;;;;;;;;;;;;;;;20.73;48.56;102126.06;5121677;27;20287;-39
2022/10/12 00:18:48;;;;;;;;;;;;;;;20.72;48.63;102124.38;5121659;27;19923;-40
2022/10/12 00:21:14;;;;;;;;;;;;;;;20.72;48.71;102122.44;5142939;27;20371;-40
2022/10/12 00:23:40;;;;;;;;;;;;;;;20.71;48.73;102120.78;5122300;27;19927;-40
2022/10/12 00:26:07;;;;;;;;;;;;;;;20.73;48.62;102117.78;5129145;27;20435;-39
2022/10/12 00:28:33;;;;;;;;;;;;;;;20.73;48.73;102115.00;5122775;27;19982;-39
2022/10/12 00:30:59;;;;;;;;;;;;;;;20.72;48.75;102116.91;5128950;27;19938;-39
2022/10/12 00:33:26;;;;;;;;;;;;;;;20.73;48.54;102117.78;5121425;27;20359;-39
2022/10/12 00:35:53;;;;;;;;;;;;;;;20.72;48.66;102119.69;5127067;27;20406;-39
2022/10/12 00:38:19;;;;;;;;;;;;;;;20.72;48.63;102119.69;5147261;27;19961;-39
2022/10/12 00:40:45;;;;;;;;;;;;;;;20.73;48.64;102120.53;5140717;27;20442;-40
2022/10/12 00:43:28;;;;;;;;;;;;;;;20.72;48.67;102119.69;5142116;27;19933;-40
2022/10/12 00:45:53;;;;;;;;;;;;;;;20.72;48.59;102121.63;5125921;27;19955;-40
2022/10/12 00:48:19;;;;;;;;;;;;;;;20.72;48.65;102116.06;5142963;27;19946;-40
2022/10/12 00:50:44;;;;;;;;;;;;;;;20.72;48.68;102114.16;5141446;27;19923;-40
2022/10/12 00:53:10;;;;;;;;;;;;;;;20.72;48.67;102116.91;5140017;27;19954;-40
2022/10/12 00:55:37;;;;;;;;;;;;;;;20.73;48.49;102115.00;5139522;27;20018;-40
2022/10/12 00:58:03;;;;;;;;;;;;;;;20.72;48.59;102119.69;5143338;27;20018;-40
2022/10/12 01:00:29;;;;;;;;;;;;;;;20.72;48.57;102125.22;5141190;27;20018;-39
2022/10/12 01:02:55;;;;;;;;;;;;;;;20.72;48.54;102122.44;5142536;27;19923;-39
2022/10/12 01:05:20;;;;;;;;;;;;;;;20.72;48.64;102122.44;5127471;27;20264;-39
2022/10/12 01:07:46;;;;;;;;;;;;;;;20.72;48.62;102119.69;5141891;27;19930;-40
2022/10/12 01:10:11;;;;;;;;;;;;;;;20.73;48.49;102117.78;5141782;27;20320;-39
2022/10/12 01:12:37;;;;;;;;;;;;;;;20.73;48.50;102120.53;5138821;27;19923;-39
2022/10/12 01:15:03;;;;;;;;;;;;;;;20.72;48.58;102122.44;5139389;27;19973;-40
2022/10/12 01:17:48;;;;;;;;;;;;;;;20.72;48.73;102113.31;5139598;27;20310;-40
2022/10/12 01:20:34;;;;;;;;;;;;;;;20.72;48.66;102125.22;5126962;27;20018;-40
2022/10/12 01:23:06;;;;;;;;;;;;;;;20.73;48.49;102117.78;5124711;27;19966;-39
2022/10/12 01:28:29;;;;;;;;;;;;;;;20.72;48.49;102100.31;5174051;27;19933;-37
2022/10/12 01:30:56;;;;;;;;;;;;;;;20.72;48.58;102102.25;5161964;27;19931;-37
2022/10/12 01:33:24;;;;;;;;;;;;;;;20.71;48.58;102097.81;5175374;27;20009;-37
2022/10/12 01:36:10;;;;;;;;;;;;;;;20.73;48.45;102098.41;5158540;27;19955;-37
2022/10/12 01:38:52;;;;;;;;;;;;;;;20.71;48.63;102090.34;5157518;27;20009;-37
2022/10/12 01:41:19;;;;;;;;;;;;;;;20.72;48.65;102091.16;5156941;27;19966;-37
2022/10/12 01:43:45;;;;;;;;;;;;;;;20.72;48.67;102085.63;5173847;27;20010;-37
2022/10/12 01:48:46;;;;;;;;;;;;;;;20.72;48.73;102091.16;5174560;27;19926;-39
2022/10/12 01:51:14;;;;;;;;;;;;;;;20.72;48.65;102085.63;5157180;27;20009;-39
2022/10/12 01:53:48;;;;;;;;;;;;;;;20.72;48.51;102086.47;5150590;27;19932;-40
2022/10/12 01:56:19;;;;;;;;;;;;;;;20.72;48.57;102082.84;5146777;27;20427;-40
2022/10/12 01:59:04;;;;;;;;;;;;;;;20.72;48.54;102085.63;5142072;27;20006;-39
2022/10/12 02:01:32;;;;;;;;;;;;;;;20.72;48.64;102082.84;5121654;27;20632;-40
2022/10/12 02:04:00;;;;;;;;;;;;;;;20.72;48.61;102086.47;5134877;27;19931;-39
2022/10/12 02:06:27;;;;;;;;;;;;;;;20.72;48.57;102085.63;5126459;27;19973;-40
2022/10/12 02:08:55;;;;;;;;;;;;;;;20.72;48.54;102089.22;5136950;27;19954;-39
2022/10/12 02:11:22;;;;;;;;;;;;;;;20.71;48.38;102078.44;5120055;27;20186;-40
2022/10/12 02:13:49;;;;;;;;;;;;;;;20.72;48.58;102089.22;5134565;27;20379;-40
2022/10/12 02:16:16;;;;;;;;;;;;;;;20.73;48.49;102087.31;5137587;27;20019;-41
2022/10/12 02:18:43;;;;;;;;;;;;;;;20.71;48.51;102082.03;5120362;27;19924;-40
2022/10/12 02:21:09;;;;;;;;;;;;;;;20.72;48.71;102086.47;5119126;27;20046;-41
2022/10/12 02:23:35;;;;;;;;;;;;;;;20.72;48.63;102080.09;5119486;27;19939;-41
2022/10/12 02:26:00;;;;;;;;;;;;;;;20.72;48.54;102074.56;5117677;27;19923;-41
2022/10/12 02:28:26;;;;;;;;;;;;;;;20.71;48.46;102070.13;5104613;27;19923;-39
2022/10/12 02:31:12;;;;;;;;;;;;;;;20.72;48.56;102074.56;5119279;27;19924;-39
2022/10/12 02:33:41;;;;;;;;;;;;;;;20.71;48.40;102065.41;5120078;27;19975;-40
2022/10/12 02:36:09;;;;;;;;;;;;;;;20.72;48.42;102069.84;5123412;27;20010;-39
2022/10/12 02:38:36;;;;;;;;;;;;;;;20.72;48.51;102071.78;5138775;27;20018;-43
2022/10/12 02:41:04;;;;;;;;;;;;;;;20.71;48.57;102067.34;5116654;27;20010;-43
2022/10/12 02:43:38;;;;;;;;;;;;;;;20.72;48.50;102069.84;5133307;27;20027;-43
2022/10/12 02:46:04;;;;;;;;;;;;;;;20.71;48.57;102057.13;5124794;27;20362;-42
2022/10/12 02:48:29;;;;;;;;;;;;;;;20.71;48.62;102059.88;5134034;27;20371;-37
2022/10/12 02:50:55;;;;;;;;;;;;;;;20.72;48.47;102046.88;5132709;27;20355;-36
2022/10/12 02:53:21;;;;;;;;;;;;;;;20.71;48.47;102045.22;5133538;27;20015;-36
2022/10/12 02:55:47;;;;;;;;;;;;;;;20.71;48.55;102048.81;5118374;27;19938;-37
2022/10/12 02:58:13;;;;;;;;;;;;;;;20.71;48.53;102034.13;5140558;27;21286;-37
2022/10/12 03:00:38;;;;;;;;;;;;;;;20.71;48.56;102034.13;5123831;27;20314;-37
2022/10/12 03:03:04;;;;;;;;;;;;;;;20.71;48.56;102034.97;5120771;27;21010;-36
2022/10/12 03:05:29;;;;;;;;;;;;;;;20.71;48.45;102037.75;5123339;27;20450;-37
2022/10/12 03:07:55;;;;;;;;;;;;;;;20.71;48.58;102029.44;5121710;27;19924;-36
2022/10/12 03:10:20;;;;;;;;;;;;;;;20.71;48.47;102034.97;5131540;27;19977;-36
2022/10/12 03:12:46;;;;;;;;;;;;;;;20.71;48.48;102032.19;5126870;27;20386;-36
2022/10/12 03:15:15;;;;;;;;;;;;;;;20.72;48.39;102035.81;5128123;27;19931;-37
2022/10/12 03:17:41;;;;;;;;;;;;;;;20.71;48.46;102034.13;5124295;27;19969;-36
2022/10/12 03:20:06;;;;;;;;;;;;;;;20.71;48.45;102031.38;5129106;27;19928;-36
2022/10/12 03:22:32;;;;;;;;;;;;;;;20.71;48.57;102034.13;5102491;28;19940;-36
2022/10/12 03:24:59;;;;;;;;;;;;;;;20.71;48.48;102034.97;5129728;27;19924;-37
2022/10/12 03:27:25;;;;;;;;;;;;;;;20.70;48.41;102027.78;5127847;27;20023;-36
2022/10/12 03:29:50;;;;;;;;;;;;;;;20.71;48.42;102032.19;5118752;27;19931;-36
2022/10/12 03:32:16;;;;;;;;;;;;;;;20.71;48.49;102034.13;5122333;27;19932;-36
2022/10/12 03:34:41;;;;;;;;;;;;;;;20.72;48.49;102038.56;5123663;27;20426;-36
2022/10/12 03:37:07;;;;;;;;;;;;;;;20.71;48.38;102028.59;5119589;27;20367;-37
2022/10/12 03:39:33;;;;;;;;;;;;;;;20.72;48.57;102030.25;5122310;27;19938;-36
2022/10/12 03:41:58;;;;;;;;;;;;;;;20.71;48.54;102028.59;5119840;27;19928;-36
2022/10/12 03:44:24;;;;;;;;;;;;;;;20.72;48.48;102030.25;5126584;27;20390;-36
2022/10/12 03:46:49;;;;;;;;;;;;;;;20.71;48.74;102021.13;5126735;27;20174;-36
2022/10/12 03:49:15;;;;;;;;;;;;;;;20.71;48.55;102023.06;5118063;27;19973;-36
2022/10/12 03:51:40;;;;;;;;;;;;;;;20.71;48.48;102021.13;5127497;27;19923;-36
2022/10/12 03:54:06;;;;;;;;;;;;;;;20.72;48.27;102027.50;5122204;27;19935;-36
2022/10/12 03:56:31;;;;;;;;;;;;;;;20.71;48.50;102023.06;5126753;27;19923;-37
2022/10/12 03:58:57;;;;;;;;;;;;;;;20.71;48.43;102018.34;5124936;27;19924;-36
2022/10/12 04:01:23;;;;;;;;;;;;;;;20.71;48.70;102021.13;5121158;27;19923;-36
2022/10/12 04:03:48;;;;;;;;;;;;;;;20.70;48.42;102016.69;5124042;27;20017;-36
2022/10/12 04:06:14;;;;;;;;;;;;;;;20.70;48.46;102018.63;5124327;27;20331;-36
2022/10/12 04:08:40;;;;;;;;;;;;;;;20.71;48.50;102015.59;5120653;27;19927;-36
2022/10/12 04:11:05;;;;;;;;;;;;;;;20.71;48.54;102026.66;5119951;27;19975;-36
2022/10/12 04:13:31;;;;;;;;;;;;;;;20.72;48.33;102030.25;5121751;27;20167;-36
2022/10/12 04:16:00;;;;;;;;;;;;;;;20.71;48.50;102023.06;5125627;27;20436;-36
2022/10/12 04:18:25;;;;;;;;;;;;;;;20.71;48.55;102021.13;5125949;27;19961;-36
2022/10/12 04:20:51;;;;;;;;;;;;;;;20.72;48.56;102027.50;5127198;27;19923;-36
2022/10/12 04:23:17;;;;;;;;;;;;;;;20.71;48.45;102028.59;5119396;27;21155;-37
2022/10/12 04:25:42;;;;;;;;;;;;;;;20.71;48.55;102020.31;5124510;27;19923;-36
2022/10/12 04:28:08;;;;;;;;;;;;;;;20.71;48.35;102026.66;5126572;27;19931;-36
2022/10/12 04:30:33;;;;;;;;;;;;;;;20.71;48.47;102020.31;5120232;27;19927;-36
2022/10/12 04:32:59;;;;;;;;;;;;;;;20.70;48.42;102016.69;5122617;27;20295;-36
2022/10/12 04:35:24;;;;;;;;;;;;;;;20.71;48.56;102023.91;5127502;27;19924;-37
2022/10/12 04:37:50;;;;;;;;;;;;;;;20.70;48.42;102015.88;5122641;27;19928;-37
2022/10/12 04:40:15;;;;;;;;;;;;;;;20.70;48.53;102010.34;5116913;27;19927;-37
2022/10/12 04:42:41;;;;;;;;;;;;;;;20.70;48.59;102008.41;5120182;27;19923;-36
2022/10/12 04:45:07;;;;;;;;;;;;;;;20.70;48.35;102011.16;5120192;27;20302;-36
2022/10/12 04:47:33;;;;;;;;;;;;;;;20.70;48.48;102022.25;5126839;27;19935;-36
2022/10/12 04:49:59;;;;;;;;;;;;;;;20.70;48.32;102021.41;5100047;28;20387;-37
2022/10/12 04:52:25;;;;;;;;;;;;;;;20.71;48.55;102017.53;5121206;27;19923;-36
2022/10/12 04:54:50;;;;;;;;;;;;;;;20.71;48.43;102015.59;5125589;27;19927;-36
2022/10/12 04:57:16;;;;;;;;;;;;;;;20.71;48.38;102012.00;5108465;28;19923;-37
2022/10/12 04:59:41;;;;;;;;;;;;;;;20.70;48.40;102007.56;5120195;27;19946;-36
2022/10/12 05:02:07;;;;;;;;;;;;;;;20.70;48.31;102008.41;5121450;27;19973;-36
2022/10/12 05:04:33;;;;;;;;;;;;;;;20.71;48.35;102009.22;5097884;27;20302;-36
2022/10/12 05:06:58;;;;;;;;;;;;;;;20.71;48.62;102018.34;5127582;27;19923;-36
2022/10/12 05:09:24;;;;;;;;;;;;;;;20.71;48.46;102018.34;5120808;27;19928;-36
2022/10/12 05:11:49;;;;;;;;;;;;;;;20.71;48.59;102009.22;5121837;27;20368;-36
2022/10/12 05:14:15;;;;;;;;;;;;;;;20.70;48.39;102002.84;5124225;27;19927;-36
2022/10/12 05:16:40;;;;;;;;;;;;;;;20.71;48.48;102003.69;5121607;27;19939;-36
2022/10/12 05:19:06;;;;;;;;;;;;;;;20.70;48.30;102000.09;5121713;27;19924;-36
2022/10/12 05:21:32;;;;;;;;;;;;;;;20.71;48.41;102003.69;5125609;27;19924;-36
2022/10/12 05:23:57;;;;;;;;;;;;;;;20.70;48.48;102002.84;5103426;28;19930;-36
2022/10/12 05:26:23;;;;;;;;;;;;;;;20.70;48.29;102008.41;5130040;27;19931;-36
2022/10/12 05:28:49;;;;;;;;;;;;;;;20.70;48.43;102004.78;5120845;27;19924;-36
2022/10/12 05:31:14;;;;;;;;;;;;;;;20.70;48.46;102002.03;5118943;27;19923;-36
2022/10/12 05:33:40;;;;;;;;;;;;;;;20.70;48.37;102005.63;5119458;27;19935;-36
2022/10/12 05:36:06;;;;;;;;;;;;;;;20.70;48.51;102005.63;5124093;27;19923;-36
2022/10/12 05:38:31;;;;;;;;;;;;;;;20.71;48.18;102009.22;5122908;27;19934;-36
2022/10/12 05:40:57;;;;;;;;;;;;;;;20.71;48.40;102003.69;5122464;27;19930;-36
2022/10/12 05:43:26;;;;;;;;;;;;;;;20.70;48.47;102008.41;5120796;27;20408;-36
2022/10/12 05:45:51;;;;;;;;;;;;;;;20.70;48.42;102008.41;5125578;27;19923;-36
2022/10/12 05:48:17;;;;;;;;;;;;;;;20.70;48.35;102013.94;5120833;27;19931;-36
2022/10/12 05:50:42;;;;;;;;;;;;;;;20.70;48.29;102008.41;5123475;27;20046;-36
2022/10/12 05:53:08;;;;;;;;;;;;;;;20.70;48.31;102015.88;5120747;27;19931;-36
2022/10/12 05:55:34;;;;;;;;;;;;;;;20.70;48.49;102008.41;5122554;27;19948;-36
2022/10/12 05:57:59;;;;;;;;;;;;;;;20.71;48.45;102017.53;5127448;27;20363;-36
2022/10/12 06:00:25;;;;;;;;;;;;;;;20.71;48.43;102012.00;5118980;27;19924;-36
2022/10/12 06:02:50;;;;;;;;;;;;;;;20.70;48.32;102013.94;5118785;27;19932;-36
2022/10/12 06:05:16;;;;;;;;;;;;;;;20.70;48.48;102005.63;5129995;27;20386;-36
2022/10/12 06:07:42;;;;;;;;;;;;;;;20.70;48.25;102011.16;5123462;27;19974;-37
2022/10/12 06:10:07;;;;;;;;;;;;;;;20.69;48.42;102009.50;5116566;27;19930;-36
2022/10/12 06:12:33;;;;;;;;;;;;;;;20.70;48.38;102010.34;5119220;27;20549;-36
2022/10/12 06:14:58;;;;;;;;;;;;;;;20.70;48.37;102016.69;5122065;27;20390;-37
2022/10/12 06:17:24;;;;;;;;;;;;;;;20.71;48.49;102018.34;5120887;27;19934;-37
2022/10/12 06:19:49;;;;;;;;;;;;;;;20.69;48.35;102017.81;5120223;27;19924;-37
2022/10/12 06:22:15;;;;;;;;;;;;;;;20.69;48.48;102012.28;5120347;27;20387;-36
2022/10/12 06:24:41;;;;;;;;;;;;;;;20.69;48.27;102015.03;5101667;28;19931;-36
2022/10/12 06:27:06;;;;;;;;;;;;;;;20.70;48.32;102024.16;5124849;27;19930;-37
2022/10/12 06:29:32;;;;;;;;;;;;;;;20.70;48.33;102021.41;5121187;27;20383;-36
2022/10/12 06:31:58;;;;;;;;;;;;;;;20.70;48.47;102013.09;5118610;27;19931;-36
2022/10/12 06:34:23;;;;;;;;;;;;;;;20.70;48.43;102019.47;5120653;27;19923;-36
2022/10/12 06:36:49;;;;;;;;;;;;;;;20.70;48.25;102024.16;5125544;27;19946;-36
2022/10/12 06:39:14;;;;;;;;;;;;;;;20.70;48.30;102026.94;5122278;27;19924;-37
2022/10/12 06:41:40;;;;;;;;;;;;;;;20.70;48.16;102029.72;5123193;27;19924;-36
2022/10/12 06:44:05;;;;;;;;;;;;;;;20.70;48.58;102032.47;5120337;27;20314;-36
2022/10/12 06:46:31;;;;;;;;;;;;;;;20.70;48.30;102033.31;5108621;28;19977;-37
2022/10/12 06:48:56;;;;;;;;;;;;;;;20.70;48.35;102029.72;5104749;28;20311;-36
2022/10/12 06:51:22;;;;;;;;;;;;;;;20.70;48.31;102033.31;5122581;27;19938;-36
2022/10/12 06:53:48;;;;;;;;;;;;;;;20.70;48.31;102027.78;5123448;27;19939;-37
2022/10/12 06:56:13;;;;;;;;;;;;;;;20.70;48.43;102024.16;5125424;27;19931;-36
2022/10/12 06:58:39;;;;;;;;;;;;;;;20.69;48.22;102028.88;5124082;27;19927;-36
2022/10/12 07:01:05;;;;;;;;;;;;;;;20.69;48.29;102023.34;5123523;27;20372;-36
2022/10/12 07:03:31;;;;;;;;;;;;;;;20.70;48.29;102013.09;5106162;28;20018;-36
2022/10/12 07:06:12;;;;;;;;;;;;;;;20.71;48.01;102020.31;5111253;27;19924;-36
2022/10/12 07:08:38;;;;;;;;;;;;;;;20.70;48.30;102022.25;5102608;28;20384;-36
2022/10/12 07:11:04;;;;;;;;;;;;;;;20.69;48.33;102012.28;5124231;27;20441;-36
2022/10/12 07:13:30;;;;;;;;;;;;;;;20.70;48.44;102007.56;5102619;27;20420;-36
2022/10/12 07:15:55;;;;;;;;;;;;;;;20.69;48.38;102012.28;5123641;27;19924;-36
2022/10/12 07:18:21;;;;;;;;;;;;;;;20.70;48.38;102008.41;5119763;27;19931;-36
2022/10/12 07:20:47;;;;;;;;;;;;;;;20.70;48.56;102013.09;5126695;27;19938;-37
2022/10/12 07:23:12;;;;;;;;;;;;;;;20.69;48.26;102006.72;5105607;28;19931;-36
2022/10/12 07:25:38;;;;;;;;;;;;;;;20.70;48.22;102010.34;5127901;27;20299;-36
2022/10/12 07:28:05;;;;;;;;;;;;;;;20.70;48.34;102013.09;5126037;27;19987;-37
2022/10/12 07:30:30;;;;;;;;;;;;;;;20.69;48.44;102006.72;5124906;27;20428;-36
2022/10/12 07:32:56;;;;;;;;;;;;;;;20.69;48.27;102008.66;5125427;27;19932;-37
2022/10/12 07:35:21;;;;;;;;;;;;;;;20.69;48.39;102008.66;5125594;27;20148;-36
2022/10/12 07:37:47;;;;;;;;;;;;;;;20.70;48.36;102010.34;5120834;27;19923;-37
2022/10/12 07:40:13;;;;;;;;;;;;;;;20.71;48.39;102012.00;5125929;27;19931;-37
2022/10/12 07:42:38;;;;;;;;;;;;;;;20.70;48.22;102019.47;5120483;27;19928;-36
2022/10/12 07:45:24;;;;;;;;;;;;;;;20.70;48.29;102013.09;5104460;27;19928;-37
2022/10/12 07:47:50;;;;;;;;;;;;;;;20.69;48.40;102006.72;5123337;27;19931;-36
2022/10/12 07:50:15;;;;;;;;;;;;;;;20.70;48.35;102013.09;5123944;27;19935;-36
2022/10/12 07:52:41;;;;;;;;;;;;;;;20.69;48.34;102017.81;5119690;27;20298;-36
2022/10/12 07:55:06;;;;;;;;;;;;;;;20.70;48.14;102013.94;5127153;27;19923;-36
2022/10/12 07:57:32;;;;;;;;;;;;;;;20.70;48.23;102015.88;5127543;27;19935;-36
2022/10/12 07:59:57;;;;;;;;;;;;;;;20.69;48.34;102012.28;5121772;27;20308;-36
2022/10/12 08:02:23;;;;;;;;;;;;;;;20.68;48.41;102013.38;5106708;28;19931;-36
2022/10/12 08:04:48;;;;;;;;;;;;;;;20.68;48.18;102016.16;5126461;27;19923;-36
2022/10/12 08:07:14;;;;;;;;;;;;;;;20.69;48.31;102019.75;5127714;27;19982;-36
2022/10/12 08:09:40;;;;;;;;;;;;;;;20.70;48.25;102013.09;5120751;28;19931;-36
2022/10/12 08:12:06;;;;;;;;;;;;;;;20.69;48.30;102009.50;5123560;27;19953;-37
2022/10/12 08:14:31;;;;;;;;;;;;;;;20.69;48.29;102011.44;5120891;27;20022;-36
2022/10/12 08:16:57;;;;;;;;;;;;;;;20.69;48.33;102019.75;5120129;27;20313;-36
2022/10/12 08:19:22;;;;;;;;;;;;;;;20.70;48.33;102010.34;5122356;27;19923;-36
2022/10/12 08:21:48;;;;;;;;;;;;;;;20.69;48.24;102003.97;5120210;27;19925;-36
2022/10/12 08:24:14;;;;;;;;;;;;;;;20.70;48.10;102005.63;5104127;27;20025;-36
2022/10/12 08:26:39;;;;;;;;;;;;;;;20.68;48.25;101999.53;5126141;27;19938;-36
2022/10/12 08:29:06;;;;;;;;;;;;;;;20.70;48.41;101999.25;5121089;27;20417;-36
2022/10/12 08:31:32;;;;;;;;;;;;;;;20.69;48.41;102001.19;5124229;27;20010;-36
2022/10/12 08:33:58;;;;;;;;;;;;;;;20.69;48.39;101995.66;5119025;27;19930;-36
2022/10/12 08:36:23;;;;;;;;;;;;;;;20.70;48.24;101997.31;5105467;27;20022;-37
2022/10/12 08:38:52;;;;;;;;;;;;;;;20.70;48.46;102000.09;5118246;27;19932;-36
2022/10/12 08:41:20;;;;;;;;;;;;;;;20.70;48.27;101993.72;5104413;28;20443;-36
2022/10/12 08:43:50;;;;;;;;;;;;;;;20.69;48.34;101997.59;5110116;28;19970;-36
2022/10/12 08:46:17;;;;;;;;;;;;;;;20.69;48.25;101997.59;5123442;27;19982;-36
2022/10/12 08:49:00;;;;;;;;;;;;;;;20.70;48.40;101993.72;5101607;28;20010;-36
2022/10/12 08:51:27;;;;;;;;;;;;;;;20.69;48.04;101986.53;5102298;28;20014;-36
2022/10/12 08:54:11;;;;;;;;;;;;;;;20.68;48.22;101985.69;5122807;27;20073;-36
2022/10/12 08:56:39;;;;;;;;;;;;;;;20.69;48.22;101990.13;5125804;27;19963;-37
2022/10/12 08:59:04;;;;;;;;;;;;;;;20.69;48.23;102003.13;5122462;27;19971;-36
2022/10/12 09:01:36;;;;;;;;;;;;;;;20.69;48.38;102006.72;5108676;28;20002;-36
2022/10/12 09:04:21;;;;;;;;;;;;;;;20.69;48.25;102006.72;5104818;27;19996;-36
2022/10/12 09:06:48;;;;;;;;;;;;;;;20.69;48.33;102005.91;5104475;27;20010;-36
2022/10/12 09:09:34;;;;;;;;;;;;;;;20.69;48.26;102015.03;5122687;27;19962;-36
2022/10/12 09:12:19;;;;;;;;;;;;;;;20.69;48.16;102012.28;5107571;28;20367;-36
2022/10/12 09:14:45;;;;;;;;;;;;;;;20.68;48.33;102010.63;5104270;27;19967;-36
2022/10/12 09:17:27;;;;;;;;;;;;;;;20.70;48.14;102015.88;5104935;27;19938;-36
2022/10/12 09:19:58;;;;;;;;;;;;;;;20.69;48.24;102011.44;5121859;27;20399;-36
2022/10/12 09:22:24;;;;;;;;;;;;;;;20.68;48.18;102013.38;5106741;27;20068;-36
2022/10/12 09:24:51;;;;;;;;;;;;;;;20.70;48.36;102026.94;5124526;27;20384;-36
2022/10/12 09:27:18;;;;;;;;;;;;;;;20.70;48.34;102010.34;5121565;27;19959;-36
2022/10/12 09:29:45;;;;;;;;;;;;;;;20.69;48.21;102017.81;5119609;27;20023;-36
2022/10/12 09:32:22;;;;;;;;;;;;;;;20.70;48.15;102015.88;5122736;27;20021;-36
2022/10/12 09:34:47;;;;;;;;;;;;;;;20.68;48.19;102018.91;5120270;27;20524;-36
2022/10/12 09:37:17;;;;;;;;;;;;;;;20.68;48.17;102027.22;5100581;27;20266;-36
2022/10/12 09:39:42;;;;;;;;;;;;;;;20.69;48.36;102028.03;5105918;28;20010;-36
2022/10/12 09:42:08;;;;;;;;;;;;;;;20.69;48.24;102019.75;5122321;27;19924;-36
2022/10/12 09:44:34;;;;;;;;;;;;;;;20.69;48.34;102012.28;5120464;27;20098;-36
2022/10/12 09:47:01;;;;;;;;;;;;;;;20.69;48.21;102005.91;5105623;27;19966;-36
2022/10/12 09:49:38;;;;;;;;;;;;;;;20.70;48.35;102004.78;5119024;27;20027;-36
2022/10/12 09:52:03;;;;;;;;;;;;;;;20.70;48.16;102004.78;5120095;27;19981;-36
2022/10/12 09:54:29;;;;;;;;;;;;;;;20.69;48.19;102003.13;5123276;27;19931;-36
2022/10/12 09:56:54;;;;;;;;;;;;;;;20.68;48.25;102002.31;5126399;27;19927;-36
2022/10/12 09:59:26;;;;;;;;;;;;;;;20.68;48.24;101996.78;5115113;27;20182;-36
2022/10/12 10:04:41;;;;;;;;;;;;;;;20.68;48.23;101982.94;5160475;27;19929;-34
2022/10/12 10:07:27;;;;;;;;;;;;;;;20.68;48.27;101990.38;5162203;27;20018;-34
2022/10/12 10:12:47;;;;;;;;;;;;;;;20.69;48.06;101997.59;5161189;27;19926;-34
2022/10/12 10:15:28;;;;;;;;;;;;;;;20.69;48.29;101998.44;5121766;27;20414;-36
2022/10/12 10:17:55;;;;;;;;;;;;;;;20.69;48.14;101994.84;5144955;27;20406;-36
2022/10/12 10:20:23;;;;;;;;;;;;;;;20.68;48.34;101999.53;5140148;27;20019;-36
2022/10/12 10:22:48;;;;;;;;;;;;;;;20.69;48.24;102005.91;5117047;27;20027;-36
2022/10/12 10:25:18;;;;;;;;;;;;;;;20.69;48.23;102003.13;5140381;27;19924;-36
2022/10/12 10:27:44;;;;;;;;;;;;;;;20.68;48.23;102005.06;5124931;27;19980;-36
2022/10/12 10:30:18;;;;;;;;;;;;;;;20.68;48.29;102010.63;5134984;27;19924;-36
2022/10/12 10:33:14;;;;;;;;;;;;;;;20.69;48.38;102005.91;5124812;27;19927;-36
2022/10/12 10:35:39;;;;;;;;;;;;;;;20.68;48.15;102005.06;5141569;27;20016;-37
2022/10/12 10:38:06;;;;;;;;;;;;;;;20.68;48.28;101991.22;5135590;27;20364;-36
2022/10/12 10:40:31;;;;;;;;;;;;;;;20.68;48.19;102005.06;5140807;27;20497;-36
2022/10/12 10:42:58;;;;;;;;;;;;;;;20.68;48.32;101996.78;5137276;27;20124;-36
2022/10/12 10:45:24;;;;;;;;;;;;;;;20.67;48.28;101992.31;5134808;27;19970;-36
2022/10/12 10:47:53;;;;;;;;;;;;;;;20.68;48.16;101993.13;5141666;27;20022;-36
2022/10/12 10:50:23;;;;;;;;;;;;;;;20.68;48.27;101995.91;5137806;27;20012;-36
2022/10/12 10:52:52;;;;;;;;;;;;;;;20.69;48.16;101994.84;5141684;27;20365;-36
2022/10/12 10:55:18;;;;;;;;;;;;;;;20.69;48.25;102000.38;5118108;27;19932;-36
2022/10/12 10:57:47;;;;;;;;;;;;;;;20.69;48.34;101994.84;5121032;27;20470;-36
2022/10/12 11:00:13;;;;;;;;;;;;;;;20.68;48.22;101994.00;5119049;27;20465;-36
2022/10/12 11:03:01;;;;;;;;;;;;;;;20.68;48.09;101991.22;5125834;27;19927;-36
2022/10/12 11:05:30;;;;;;;;;;;;;;;20.69;48.15;101981.00;5140489;27;20391;-36
2022/10/12 11:07:56;;;;;;;;;;;;;;;20.68;48.19;101977.41;5142432;27;20041;-36
2022/10/12 11:10:24;;;;;;;;;;;;;;;20.68;48.22;101982.94;5136854;27;19966;-36
2022/10/12 11:12:53;;;;;;;;;;;;;;;20.69;48.17;101975.47;5119004;27;20026;-36
2022/10/12 11:15:22;;;;;;;;;;;;;;;20.68;48.35;101980.16;5114893;27;20034;-36
2022/10/12 11:17:49;;;;;;;;;;;;;;;20.69;48.27;101969.91;5125395;27;19971;-36
2022/10/12 11:20:22;;;;;;;;;;;;;;;20.69;48.14;101972.69;5123848;27;19976;-36
2022/10/12 11:22:50;;;;;;;;;;;;;;;20.67;48.23;101967.41;5134354;27;20358;-36
2022/10/12 11:25:22;;;;;;;;;;;;;;;20.68;48.32;101962.69;5124587;27;20068;-36
2022/10/12 11:27:48;;;;;;;;;;;;;;;20.68;48.27;101955.25;5108364;27;19962;-36
2022/10/12 11:30:20;;;;;;;;;;;;;;;20.68;48.32;101954.38;5123214;27;19924;-36
2022/10/12 11:32:52;;;;;;;;;;;;;;;20.68;48.32;101948.84;5121158;27;20383;-37
2022/10/12 11:35:34;;;;;;;;;;;;;;;20.68;48.32;101949.72;5110182;27;19959;-36
2022/10/12 11:38:00;;;;;;;;;;;;;;;20.68;48.25;101943.31;5105877;27;20467;-36
2022/10/12 11:40:28;;;;;;;;;;;;;;;20.67;48.18;101939.72;5101565;28;20019;-36
2022/10/12 11:43:15;;;;;;;;;;;;;;;20.68;48.34;101940.53;5105536;28;20428;-37
2022/10/12 11:45:42;;;;;;;;;;;;;;;20.68;48.34;101933.09;5124984;27;20031;-36
2022/10/12 11:48:09;;;;;;;;;;;;;;;20.67;48.29;101934.19;5126979;27;19973;-36
2022/10/12 11:50:36;;;;;;;;;;;;;;;20.68;48.20;101933.09;5122832;27;19986;-36
2022/10/12 11:53:03;;;;;;;;;;;;;;;20.68;48.16;101930.34;5107602;27;19984;-36
2022/10/12 11:55:48;;;;;;;;;;;;;;;20.68;48.18;101929.47;5103870;28;19978;-36
2022/10/12 11:58:17;;;;;;;;;;;;;;;20.68;48.25;101927.56;5109800;27;20011;-36
2022/10/12 12:00:54;;;;;;;;;;;;;;;20.68;48.23;101915.63;5124835;27;19962;-36
2022/10/12 12:03:24;;;;;;;;;;;;;;;20.68;48.15;101913.72;5104258;27;20014;-36
2022/10/12 12:05:49;;;;;;;;;;;;;;;20.67;48.33;101909.28;5128312;27;20017;-36
2022/10/12 12:08:35;;;;;;;;;;;;;;;20.68;48.14;101915.63;5124983;27;19923;-36
2022/10/12 12:11:20;;;;;;;;;;;;;;;20.68;48.46;101913.72;5107068;27;19970;-36
2022/10/12 12:13:46;;;;;;;;;;;;;;;20.69;48.33;101911.78;5105498;27;20109;-36
2022/10/12 12:19:06;;;;;;;;;;;;;;;20.68;48.29;101899.03;5182546;27;19925;-34
2022/10/12 12:21:51;;;;;;;;;;;;;;;20.68;48.23;101905.44;5156277;27;19970;-36
2022/10/12 12:24:17;;;;;;;;;;;;;;;20.69;48.14;101897.94;5161221;27;20006;-36
2022/10/12 12:26:45;;;;;;;;;;;;;;;20.68;48.29;101899.03;5174941;27;19923;-37
2022/10/12 12:29:14;;;;;;;;;;;;;;;20.69;48.30;101892.41;5170489;27;20390;-36
2022/10/12 12:31:39;;;;;;;;;;;;;;;20.68;48.33;101890.72;5173918;27;19957;-36
2022/10/12 12:34:11;;;;;;;;;;;;;;;20.68;48.15;101874.97;5172838;27;19922;-36
2022/10/12 12:36:37;;;;;;;;;;;;;;;20.68;48.16;101880.50;5169981;27;19974;-36
2022/10/12 12:39:03;;;;;;;;;;;;;;;20.67;48.34;101873.28;5170224;27;20446;-36
2022/10/12 12:41:48;;;;;;;;;;;;;;;20.68;48.24;101868.59;5146122;27;20013;-36
2022/10/12 12:44:43;;;;;;;;;;;;;;;20.68;48.09;101863.91;5158544;27;20418;-36
2022/10/12 12:47:11;;;;;;;;;;;;;;;20.69;48.30;101861.97;5152978;27;20027;-36
2022/10/12 12:49:59;;;;;;;;;;;;;;;20.68;48.18;101861.13;5149692;27;19923;-36
2022/10/12 12:52:27;;;;;;;;;;;;;;;20.68;48.32;101852.84;5173765;27;19977;-36
2022/10/12 12:55:12;;;;;;;;;;;;;;;20.68;48.22;101855.59;5145466;27;19967;-36